Time;durP1;ratioP1;P1;durP2;ratioP2;P2;SDS_P1;SDS_P2;PMS_P1;PMS_P2;Temp;Humidity;BMP_temperature;BMP_pressure;BME280_temperature;BME280_humidity;BME280_pressure;Samples;Min_cycle;Max_cycle;Signal;HPM_P1;HPM_P2
2021/06/11 00:01:33;;;;;;;16.65;15.07;;;17.30;99.90;;;;;;5073378;28;20304;-64
2021/06/11 00:04:01;;;;;;;17.67;14.55;;;17.20;99.90;;;;;;5073342;28;20207;-64
2021/06/11 00:06:28;;;;;;;16.02;14.45;;;17.20;99.90;;;;;;5073148;28;20224;-63
2021/06/11 00:08:55;;;;;;;16.77;15.00;;;17.20;99.90;;;;;;5073244;28;20204;-64
2021/06/11 00:11:23;;;;;;;16.23;14.73;;;17.10;99.90;;;;;;5073093;28;20652;-63
2021/06/11 00:13:50;;;;;;;15.02;13.73;;;17.30;99.90;;;;;;5073801;28;20217;-65
2021/06/11 00:16:19;;;;;;;15.95;14.38;;;17.20;99.90;;;;;;5073937;28;20215;-64
2021/06/11 00:18:47;;;;;;;15.52;14.02;;;17.20;99.90;;;;;;5079694;28;20733;-64
2021/06/11 00:21:14;;;;;;;16.98;15.38;;;17.00;99.90;;;;;;5093031;28;20204;-65
2021/06/11 00:23:42;;;;;;;16.23;14.73;;;16.90;99.90;;;;;;5093114;28;20234;-63
2021/06/11 00:26:09;;;;;;;16.52;14.85;;;16.90;99.90;;;;;;5092568;28;20648;-63
2021/06/11 00:28:36;;;;;;;17.42;15.45;;;17.00;99.90;;;;;;5092792;28;20631;-63
2021/06/11 00:31:04;;;;;;;16.17;14.60;;;16.90;99.90;;;;;;5093021;28;20202;-64
2021/06/11 00:33:33;;;;;;;16.80;15.32;;;16.90;99.90;;;;;;5093040;28;20223;-64
2021/06/11 00:36:00;;;;;;;17.50;15.77;;;16.80;99.90;;;;;;5081838;28;20207;-64
2021/06/11 00:38:27;;;;;;;17.48;15.85;;;16.70;99.90;;;;;;5069504;28;20201;-64
2021/06/11 00:40:55;;;;;;;16.33;14.73;;;16.70;99.90;;;;;;5072339;28;20752;-65
2021/06/11 00:43:22;;;;;;;16.35;14.63;;;16.60;99.90;;;;;;5072612;28;20203;-64
2021/06/11 00:45:49;;;;;;;16.63;15.02;;;16.60;99.90;;;;;;5072366;28;20567;-64
2021/06/11 00:48:17;;;;;;;17.42;15.48;;;16.60;99.90;;;;;;5072325;28;20672;-64
2021/06/11 00:50:46;;;;;;;16.95;15.45;;;16.50;99.90;;;;;;5072178;28;20295;-64
2021/06/11 00:53:13;;;;;;;17.05;15.32;;;16.50;99.90;;;;;;5071771;28;20311;-63
2021/06/11 00:55:44;;;;;;;17.75;16.05;;;16.40;99.90;;;;;;5072152;28;20205;-65
2021/06/11 00:58:11;;;;;;;16.98;15.27;;;16.40;99.90;;;;;;5072643;28;20207;-65
2021/06/11 01:00:39;;;;;;;18.65;15.85;;;16.40;99.90;;;;;;5072319;28;20200;-65
2021/06/11 01:03:07;;;;;;;18.90;17.10;;;16.40;99.90;;;;;;5072124;28;20688;-64
2021/06/11 01:05:35;;;;;;;18.05;16.35;;;16.40;99.90;;;;;;5072033;28;20201;-64
2021/06/11 01:08:04;;;;;;;18.67;16.77;;;16.40;99.90;;;;;;5071939;28;20211;-65
2021/06/11 01:10:32;;;;;;;17.98;16.10;;;16.50;99.90;;;;;;5072249;28;20210;-64
2021/06/11 01:12:59;;;;;;;17.23;15.60;;;16.50;99.90;;;;;;5072141;28;20203;-65
2021/06/11 01:15:27;;;;;;;18.85;17.08;;;16.50;99.90;;;;;;5071861;28;20205;-64
2021/06/11 01:17:55;;;;;;;18.35;16.55;;;16.50;99.90;;;;;;5072175;28;20201;-64
2021/06/11 01:20:24;;;;;;;18.38;16.58;;;16.40;99.90;;;;;;5051759;28;20219;-63
2021/06/11 01:23:28;;;;;;;17.90;16.08;;;16.50;99.90;;;;;;5051911;28;20561;-64
2021/06/11 01:26:08;;;;;;;18.60;16.80;;;16.50;99.90;;;;;;5052091;28;20185;-64
2021/06/11 01:28:36;;;;;;;19.08;17.27;;;16.50;99.90;;;;;;5071638;28;20697;-63
2021/06/11 01:31:04;;;;;;;19.40;17.48;;;16.50;99.90;;;;;;5072038;28;20212;-64
2021/06/11 01:33:34;;;;;;;19.25;17.45;;;16.60;99.90;;;;;;5071995;28;20226;-64
2021/06/11 01:36:04;;;;;;;17.45;15.65;;;16.60;99.90;;;;;;5071868;28;20201;-64
2021/06/11 01:38:36;;;;;;;19.38;17.33;;;16.60;99.90;;;;;;5071627;28;20205;-64
2021/06/11 01:41:05;;;;;;;19.20;17.20;;;16.70;99.90;;;;;;5071980;28;20189;-64
2021/06/11 01:43:35;;;;;;;19.20;17.33;;;16.70;99.90;;;;;;5071566;28;20641;-63
2021/06/11 01:46:03;;;;;;;21.23;17.40;;;16.60;99.90;;;;;;5071928;28;20187;-64
2021/06/11 01:48:30;;;;;;;20.30;17.90;;;16.70;99.90;;;;;;5072062;28;20193;-64
2021/06/11 01:50:59;;;;;;;19.88;16.38;;;16.50;99.90;;;;;;5075644;28;20284;-64
2021/06/11 01:53:27;;;;;;;18.90;17.02;;;16.50;99.90;;;;;;5075566;28;20222;-63
2021/06/11 01:55:56;;;;;;;17.92;16.23;;;16.60;99.90;;;;;;5075452;28;20644;-64
2021/06/11 01:58:23;;;;;;;19.13;16.40;;;16.60;99.90;;;;;;5075747;28;20201;-63
2021/06/11 02:00:54;;;;;;;17.85;16.08;;;16.60;99.90;;;;;;5075356;28;20211;-64
2021/06/11 02:03:22;;;;;;;18.17;15.95;;;16.60;99.90;;;;;;5075507;28;20636;-63
2021/06/11 02:05:52;;;;;;;18.02;16.33;;;16.50;99.90;;;;;;5075047;28;20669;-64
2021/06/11 02:08:21;;;;;;;18.38;16.77;;;16.70;99.90;;;;;;5075371;28;20288;-65
2021/06/11 02:10:48;;;;;;;17.98;16.20;;;16.80;99.90;;;;;;5075492;28;20204;-64
2021/06/11 02:13:16;;;;;;;18.38;16.58;;;16.70;99.90;;;;;;5075351;28;20197;-65
2021/06/11 02:15:44;;;;;;;17.63;15.60;;;16.60;99.90;;;;;;5075284;28;20296;-64
2021/06/11 02:18:14;;;;;;;19.08;17.27;;;16.60;99.90;;;;;;5077037;28;20201;-65
2021/06/11 02:20:42;;;;;;;18.73;16.73;;;16.50;99.90;;;;;;5094981;28;20223;-64
2021/06/11 02:23:09;;;;;;;18.33;16.40;;;16.50;99.90;;;;;;5094891;28;20741;-64
2021/06/11 02:25:37;;;;;;;18.02;16.23;;;16.40;99.90;;;;;;5095486;28;20196;-64
2021/06/11 02:28:06;;;;;;;18.00;16.20;;;16.40;99.90;;;;;;5095141;28;20224;-64
2021/06/11 02:30:33;;;;;;;18.75;16.30;;;16.60;99.90;;;;;;5095479;28;20200;-63
2021/06/11 02:33:01;;;;;;;18.90;16.60;;;16.60;99.90;;;;;;5095369;28;20746;-64
2021/06/11 02:35:29;;;;;;;18.08;16.38;;;16.50;99.90;;;;;;5094882;28;20220;-64
2021/06/11 02:37:58;;;;;;;19.30;16.10;;;16.50;99.90;;;;;;5095039;28;20200;-64
2021/06/11 02:40:26;;;;;;;18.00;16.15;;;16.50;99.90;;;;;;5095212;28;20198;-63
2021/06/11 02:42:57;;;;;;;18.42;16.65;;;16.70;99.90;;;;;;5094868;28;20551;-63
2021/06/11 02:45:27;;;;;;;18.33;16.38;;;16.80;99.90;;;;;;5094941;28;20706;-63
2021/06/11 02:48:00;;;;;;;18.10;16.20;;;16.70;99.90;;;;;;5095276;28;20212;-63
2021/06/11 02:50:36;;;;;;;18.40;16.60;;;16.60;99.90;;;;;;5094699;28;20208;-64
2021/06/11 02:53:06;;;;;;;18.67;16.75;;;16.50;99.90;;;;;;5094380;28;20188;-64
2021/06/11 02:55:36;;;;;;;17.33;15.52;;;16.50;99.90;;;;;;5094878;28;20226;-64
2021/06/11 02:58:10;;;;;;;18.25;16.33;;;16.40;99.90;;;;;;5094805;28;20208;-64
2021/06/11 03:00:40;;;;;;;17.48;15.30;;;16.60;99.90;;;;;;5094861;28;20271;-64
2021/06/11 03:03:13;;;;;;;18.77;16.80;;;16.60;99.90;;;;;;5094744;28;20187;-66
2021/06/11 03:05:43;;;;;;;18.13;15.77;;;16.50;99.90;;;;;;5094220;28;20177;-64
2021/06/11 03:08:13;;;;;;;18.85;16.98;;;16.40;99.90;;;;;;5094539;28;20195;-64
2021/06/11 03:10:46;;;;;;;18.90;16.83;;;16.30;99.90;;;;;;5094896;28;20203;-64
2021/06/11 03:13:14;;;;;;;18.45;16.75;;;16.20;99.90;;;;;;5094562;28;20184;-64
2021/06/11 03:15:41;;;;;;;17.92;16.13;;;16.30;99.90;;;;;;5094431;28;20314;-64
2021/06/11 03:18:20;;;;;;;18.27;16.40;;;16.40;99.90;;;;;;5092435;28;20204;-64
2021/06/11 03:20:51;;;;;;;18.65;16.17;;;16.40;99.90;;;;;;5073655;28;20189;-63
2021/06/11 03:23:23;;;;;;;17.38;15.55;;;16.60;99.90;;;;;;5073930;28;20268;-63
2021/06/11 03:25:53;;;;;;;17.92;16.05;;;16.70;99.90;;;;;;5074074;28;20185;-63
2021/06/11 03:28:25;;;;;;;17.05;15.35;;;16.80;99.90;;;;;;5073578;28;20652;-63
2021/06/11 03:30:55;;;;;;;18.30;16.02;;;16.60;99.90;;;;;;5074090;28;20181;-65
2021/06/11 03:33:27;;;;;;;17.55;15.65;;;16.70;99.90;;;;;;5074136;28;20189;-64
2021/06/11 03:36:02;;;;;;;17.52;15.88;;;16.70;99.90;;;;;;5073355;28;20211;-64
2021/06/11 03:38:31;;;;;;;17.05;15.32;;;16.90;99.90;;;;;;5073831;28;20184;-64
2021/06/11 03:41:00;;;;;;;16.48;14.77;;;17.00;99.90;;;;;;5073784;28;20201;-63
2021/06/11 03:43:29;;;;;;;16.80;14.95;;;17.00;99.90;;;;;;5073658;28;20239;-64
2021/06/11 03:45:58;;;;;;;17.88;14.95;;;17.10;99.90;;;;;;5073406;28;20291;-64
2021/06/11 03:48:27;;;;;;;16.52;15.00;;;17.00;99.90;;;;;;5073660;28;20254;-64
2021/06/11 03:50:57;;;;;;;16.67;14.80;;;16.90;99.90;;;;;;5073039;28;20200;-63
2021/06/11 03:53:25;;;;;;;16.67;14.88;;;17.00;99.90;;;;;;5073524;28;20211;-65
2021/06/11 03:55:59;;;;;;;17.25;15.50;;;17.00;99.90;;;;;;5073396;28;20315;-64
2021/06/11 03:58:30;;;;;;;17.73;15.25;;;17.10;99.90;;;;;;5073184;28;21031;-64
2021/06/11 04:01:00;;;;;;;16.92;15.32;;;17.20;99.90;;;;;;5073901;28;20213;-64
2021/06/11 04:03:28;;;;;;;16.42;14.82;;;17.30;99.90;;;;;;5073909;28;20199;-63
2021/06/11 04:06:05;;;;;;;16.42;14.73;;;17.50;99.90;;;;;;5073347;28;20218;-64
2021/06/11 04:08:34;;;;;;;17.92;16.13;;;17.60;99.90;;;;;;5073836;28;20185;-64
2021/06/11 04:11:03;;;;;;;16.70;14.85;;;17.60;99.90;;;;;;5073033;28;20233;-64
2021/06/11 04:13:40;;;;;;;16.45;14.75;;;17.80;99.90;;;;;;5073577;28;20295;-64
2021/06/11 04:16:17;;;;;;;15.98;14.32;;;17.70;99.90;;;;;;5073054;28;20648;-64
2021/06/11 04:18:47;;;;;;;16.98;15.10;;;17.90;99.90;;;;;;5080165;28;20198;-64
2021/06/11 04:21:22;;;;;;;17.90;14.68;;;18.00;99.90;;;;;;5093117;28;20314;-64
2021/06/11 04:23:50;;;;;;;15.25;13.85;;;18.20;99.90;;;;;;5093531;28;20184;-64
2021/06/11 04:26:21;;;;;;;15.48;13.98;;;18.30;99.90;;;;;;5093508;28;20279;-64
2021/06/11 04:28:51;;;;;;;15.40;13.85;;;18.50;99.90;;;;;;5093316;28;20632;-64
2021/06/11 04:31:18;;;;;;;14.55;13.25;;;18.70;99.90;;;;;;5093563;28;20202;-64
2021/06/11 04:33:46;;;;;;;15.68;13.93;;;18.90;99.90;;;;;;5093738;28;20660;-64
2021/06/11 04:36:13;;;;;;;15.90;14.27;;;18.80;99.90;;;;;;5093052;28;20230;-64
2021/06/11 04:38:55;;;;;;;14.77;13.18;;;18.80;99.90;;;;;;5093636;28;20576;-64
2021/06/11 04:41:23;;;;;;;14.65;13.27;;;18.80;99.90;;;;;;5096703;28;20219;-64
2021/06/11 04:43:51;;;;;;;15.68;14.07;;;18.80;99.90;;;;;;5096108;28;20298;-64
2021/06/11 04:46:19;;;;;;;14.23;12.68;;;18.90;99.90;;;;;;5093903;28;20211;-64
2021/06/11 04:48:46;;;;;;;15.57;13.95;;;19.00;99.90;;;;;;5091628;28;20196;-65
2021/06/11 04:51:14;;;;;;;16.45;14.05;;;19.40;99.90;;;;;;5053667;28;20717;-64
2021/06/11 04:53:41;;;;;;;14.77;11.70;;;20.40;99.90;;;;;;5072987;28;20325;-64
2021/06/11 04:56:10;;;;;;;12.20;11.07;;;22.00;99.90;;;;;;5072872;28;20226;-64
2021/06/11 04:58:40;;;;;;;13.63;11.40;;;23.70;99.90;;;;;;5072680;28;20222;-65
2021/06/11 05:01:09;;;;;;;14.18;11.18;;;25.20;99.90;;;;;;5072860;28;20208;-65
2021/06/11 05:03:37;;;;;;;11.48;10.35;;;26.40;99.90;;;;;;5073012;28;20200;-65
2021/06/11 05:06:05;;;;;;;12.05;9.90;;;27.30;99.90;;;;;;5072018;28;20211;-64
2021/06/11 05:08:32;;;;;;;10.98;9.98;;;28.00;99.90;;;;;;5072505;28;20672;-64
2021/06/11 05:11:01;;;;;;;10.40;9.48;;;28.50;99.90;;;;;;5072448;28;20557;-65
2021/06/11 05:13:30;;;;;;;10.20;9.30;;;29.20;99.90;;;;;;5072837;28;20300;-64
2021/06/11 05:15:58;;;;;;;11.27;7.95;;;29.80;99.90;;;;;;5072655;28;20304;-64
2021/06/11 05:18:29;;;;;;;11.35;10.18;;;29.90;99.90;;;;;;5077000;28;20207;-64
2021/06/11 05:20:57;;;;;;;8.80;7.55;;;30.40;99.90;;;;;;5092221;28;20200;-64
2021/06/11 05:23:26;;;;;;;7.97;7.18;;;30.90;99.90;;;;;;5092037;28;20200;-64
2021/06/11 05:25:53;;;;;;;8.18;6.93;;;31.00;99.90;;;;;;5092631;28;20208;-64
2021/06/11 05:28:22;;;;;;;9.95;8.95;;;31.00;99.90;;;;;;5092526;28;20311;-65
2021/06/11 05:30:51;;;;;;;9.93;9.13;;;30.80;99.90;;;;;;5092545;28;20742;-64
2021/06/11 05:33:19;;;;;;;11.50;9.38;;;30.40;99.90;;;;;;5092489;28;20282;-64
2021/06/11 05:35:46;;;;;;;9.43;8.45;;;29.70;99.90;;;;;;5091827;28;20699;-64
2021/06/11 05:38:15;;;;;;;11.48;10.23;;;28.80;99.90;;;;;;5092440;28;20230;-64
2021/06/11 05:40:43;;;;;;;11.15;9.95;;;28.10;99.90;;;;;;5092335;28;20863;-64
2021/06/11 05:43:10;;;;;;;10.40;9.45;;;27.50;99.90;;;;;;5092593;28;20286;-64
2021/06/11 05:45:38;;;;;;;12.05;10.88;;;26.50;99.90;;;;;;5092410;28;20291;-63
2021/06/11 05:48:08;;;;;;;12.50;11.30;;;24.90;99.90;;;;;;5092603;28;20291;-64
2021/06/11 05:50:35;;;;;;;12.27;11.07;;;23.70;99.90;;;;;;5091907;28;20188;-63
2021/06/11 05:53:03;;;;;;;12.73;11.18;;;22.80;99.90;;;;;;5090670;28;20286;-65
2021/06/11 05:55:30;;;;;;;13.20;11.95;;;22.50;99.90;;;;;;5070216;28;20327;-63
2021/06/11 05:57:58;;;;;;;14.63;13.13;;;22.30;99.90;;;;;;5087149;28;20282;-64
2021/06/11 06:00:25;;;;;;;13.63;12.32;;;22.10;99.90;;;;;;5071227;28;20207;-66
2021/06/11 06:02:53;;;;;;;14.40;12.38;;;21.80;99.90;;;;;;5069450;28;20307;-67
2021/06/11 06:05:21;;;;;;;17.77;12.05;;;21.60;99.90;;;;;;5069022;28;20287;-63
2021/06/11 06:07:49;;;;;;;13.48;12.07;;;21.50;99.90;;;;;;5069176;28;20307;-63
2021/06/11 06:10:17;;;;;;;14.20;12.73;;;21.40;99.90;;;;;;5069172;28;20299;-64
2021/06/11 06:12:44;;;;;;;11.95;10.85;;;21.50;99.90;;;;;;5068989;28;20204;-64
2021/06/11 06:15:12;;;;;;;14.10;12.80;;;21.70;99.90;;;;;;5069169;28;20219;-63
2021/06/11 06:17:39;;;;;;;14.00;12.55;;;21.70;99.90;;;;;;5069237;28;20204;-62
2021/06/11 06:20:09;;;;;;;14.70;11.70;;;21.70;99.90;;;;;;5086776;28;20204;-64
2021/06/11 06:22:41;;;;;;;13.02;11.82;;;21.70;99.90;;;;;;5089302;28;20185;-63
2021/06/11 06:25:10;;;;;;;13.75;11.98;;;21.90;99.90;;;;;;5089187;28;20242;-63
2021/06/11 06:27:40;;;;;;;14.43;12.95;;;21.90;99.90;;;;;;5088602;28;20236;-63
2021/06/11 06:30:10;;;;;;;13.50;12.30;;;22.10;99.90;;;;;;5089348;28;20204;-63
2021/06/11 06:32:38;;;;;;;13.77;12.48;;;22.10;99.90;;;;;;5089366;28;20190;-63
2021/06/11 06:35:08;;;;;;;14.63;13.13;;;22.00;99.90;;;;;;5074967;28;20235;-64
2021/06/11 06:37:36;;;;;;;13.60;12.23;;;21.90;99.90;;;;;;5072601;28;20196;-62
2021/06/11 06:40:06;;;;;;;13.82;12.63;;;22.00;99.90;;;;;;5072455;28;20207;-64
2021/06/11 06:42:34;;;;;;;13.50;12.02;;;22.20;99.90;;;;;;5072493;28;20299;-64
2021/06/11 06:45:02;;;;;;;15.48;13.85;;;22.40;99.90;;;;;;5071518;28;20224;-64
2021/06/11 06:47:29;;;;;;;14.77;13.38;;;22.50;99.90;;;;;;5071599;28;20299;-64
2021/06/11 06:49:58;;;;;;;16.58;14.93;;;22.60;99.90;;;;;;5071914;28;20226;-64
2021/06/11 06:52:25;;;;;;;16.00;14.30;;;22.60;99.90;;;;;;5071989;28;20205;-64
2021/06/11 06:54:53;;;;;;;15.32;13.85;;;22.60;99.90;;;;;;5072202;28;20238;-64
2021/06/11 06:57:21;;;;;;;14.70;13.43;;;22.60;99.90;;;;;;5072005;28;20200;-64
2021/06/11 06:59:49;;;;;;;15.95;13.85;;;22.60;99.90;;;;;;5072015;28;20203;-63
2021/06/11 07:02:16;;;;;;;16.67;14.98;;;22.60;99.90;;;;;;5071939;28;20201;-63
2021/06/11 07:04:44;;;;;;;16.42;14.93;;;22.70;99.90;;;;;;5071323;28;20205;-64
2021/06/11 07:07:13;;;;;;;16.27;14.77;;;22.60;99.90;;;;;;5071450;28;20196;-63
2021/06/11 07:09:41;;;;;;;15.98;14.48;;;22.60;99.90;;;;;;5071829;28;20203;-64
2021/06/11 07:12:09;;;;;;;17.05;15.45;;;22.80;99.90;;;;;;5071588;28;20203;-64
2021/06/11 07:14:39;;;;;;;15.20;13.35;;;22.80;99.90;;;;;;5071300;28;20205;-64
2021/06/11 07:17:06;;;;;;;15.93;14.35;;;22.80;99.90;;;;;;5071443;28;20231;-64
2021/06/11 07:19:33;;;;;;;15.45;14.10;;;23.00;99.90;;;;;;5084409;28;20200;-64
2021/06/11 07:22:03;;;;;;;15.18;13.70;;;23.10;99.90;;;;;;5091408;28;20200;-65
2021/06/11 07:24:31;;;;;;;16.77;15.15;;;23.20;99.90;;;;;;5091643;28;20244;-64
2021/06/11 07:26:59;;;;;;;18.00;16.02;;;23.30;99.90;;;;;;5089947;28;20255;-64
2021/06/11 07:29:26;;;;;;;17.23;15.45;;;23.30;99.90;;;;;;5090628;28;20207;-64
2021/06/11 07:31:55;;;;;;;18.02;16.35;;;23.40;99.90;;;;;;5090686;28;20215;-64
2021/06/11 07:34:23;;;;;;;17.98;16.33;;;23.30;99.90;;;;;;5090909;28;20207;-64
2021/06/11 07:36:50;;;;;;;18.77;17.08;;;23.30;99.90;;;;;;5089880;28;20220;-64
2021/06/11 07:39:18;;;;;;;15.35;13.95;;;23.20;99.90;;;;;;5090869;28;20206;-64
2021/06/11 07:41:46;;;;;;;17.13;15.45;;;23.20;99.90;;;;;;5090701;28;20233;-65
2021/06/11 07:44:13;;;;;;;16.35;14.55;;;23.30;99.90;;;;;;5090486;28;20196;-65
2021/06/11 07:46:41;;;;;;;16.08;14.57;;;23.40;99.90;;;;;;5089528;28;20758;-65
2021/06/11 07:49:10;;;;;;;16.77;15.20;;;23.60;99.90;;;;;;5090193;28;20261;-65
2021/06/11 07:51:38;;;;;;;16.30;14.80;;;23.90;99.90;;;;;;5090081;28;20695;-65
2021/06/11 07:54:06;;;;;;;16.48;14.93;;;24.00;99.90;;;;;;5090603;28;20195;-65
2021/06/11 07:56:33;;;;;;;16.92;15.30;;;24.20;99.90;;;;;;5090523;28;20215;-64
2021/06/11 07:59:01;;;;;;;15.57;14.20;;;24.30;99.90;;;;;;5090298;28;20223;-65
2021/06/11 08:01:28;;;;;;;15.40;14.10;;;24.30;99.90;;;;;;5090173;28;20290;-65
2021/06/11 08:03:56;;;;;;;15.55;14.18;;;24.20;99.90;;;;;;5090309;28;20204;-65
2021/06/11 08:06:25;;;;;;;16.13;14.13;;;24.10;99.90;;;;;;5090332;28;20196;-64
2021/06/11 08:08:52;;;;;;;15.52;14.02;;;24.20;99.90;;;;;;5089952;28;20200;-64
2021/06/11 08:11:19;;;;;;;16.77;15.18;;;24.20;99.90;;;;;;5090074;28;20291;-65
2021/06/11 08:13:47;;;;;;;15.23;13.93;;;24.20;99.90;;;;;;5090010;28;20629;-65
2021/06/11 08:16:14;;;;;;;14.10;12.77;;;24.20;99.90;;;;;;5089708;28;20219;-64
2021/06/11 08:18:42;;;;;;;15.75;14.35;;;24.10;99.90;;;;;;5083874;28;20239;-64
2021/06/11 08:21:09;;;;;;;15.00;13.50;;;24.00;99.90;;;;;;5069465;28;20643;-65
2021/06/11 08:23:38;;;;;;;16.20;14.70;;;24.00;99.90;;;;;;5069601;28;20239;-64
2021/06/11 08:26:05;;;;;;;16.70;15.10;;;23.90;99.90;;;;;;5069775;28;20200;-65
2021/06/11 08:28:33;;;;;;;15.15;13.73;;;23.80;99.90;;;;;;5069023;28;20601;-65
2021/06/11 08:31:00;;;;;;;14.55;13.05;;;23.70;99.90;;;;;;5069855;28;20197;-65
2021/06/11 08:33:28;;;;;;;15.05;13.75;;;23.60;99.90;;;;;;5069610;28;20292;-64
2021/06/11 08:35:55;;;;;;;14.57;13.30;;;23.50;99.90;;;;;;5069188;28;20316;-65
2021/06/11 08:38:22;;;;;;;14.57;13.15;;;23.50;99.90;;;;;;5069600;28;20583;-65
2021/06/11 08:40:51;;;;;;;16.92;15.18;;;23.60;99.90;;;;;;5068627;28;20204;-65
2021/06/11 08:43:20;;;;;;;15.63;14.13;;;23.70;99.90;;;;;;5068956;28;20207;-64
2021/06/11 08:45:49;;;;;;;15.55;13.98;;;23.70;99.90;;;;;;5069235;28;20196;-64
2021/06/11 08:48:17;;;;;;;15.13;13.65;;;23.70;99.90;;;;;;5069049;28;20212;-65
2021/06/11 08:50:44;;;;;;;14.15;12.88;;;23.70;99.90;;;;;;5068535;28;20211;-64
2021/06/11 08:53:12;;;;;;;15.98;14.38;;;23.80;99.90;;;;;;5069086;28;20200;-65
2021/06/11 08:55:39;;;;;;;15.32;14.02;;;23.80;99.90;;;;;;5068662;28;20238;-65
2021/06/11 08:58:08;;;;;;;14.27;12.98;;;23.80;99.90;;;;;;5069007;28;20201;-64
2021/06/11 09:00:35;;;;;;;16.80;15.30;;;23.80;99.90;;;;;;5068755;28;20204;-65
2021/06/11 09:03:14;;;;;;;14.88;13.50;;;23.90;99.90;;;;;;5068975;28;20205;-66
2021/06/11 09:05:43;;;;;;;14.73;13.45;;;23.90;99.90;;;;;;5068944;28;20219;-64
2021/06/11 09:08:16;;;;;;;13.23;11.85;;;24.00;99.90;;;;;;5068563;28;20196;-65
2021/06/11 09:10:43;;;;;;;15.57;14.18;;;24.10;99.90;;;;;;5069894;28;20280;-63
2021/06/11 09:13:21;;;;;;;14.05;12.85;;;24.10;99.90;;;;;;5068736;28;20208;-64
2021/06/11 09:15:49;;;;;;;13.50;12.20;;;24.20;99.90;;;;;;5068686;28;20276;-63
2021/06/11 09:18:22;;;;;;;13.48;12.27;;;24.30;99.90;;;;;;5071715;28;20211;-65
2021/06/11 09:20:50;;;;;;;14.27;12.95;;;24.40;99.90;;;;;;5088760;28;20279;-64
2021/06/11 09:23:18;;;;;;;12.50;11.50;;;24.50;99.90;;;;;;5088920;28;20299;-65
2021/06/11 09:25:48;;;;;;;11.45;10.45;;;24.50;99.90;;;;;;5088829;28;20207;-64
2021/06/11 09:28:22;;;;;;;13.10;11.80;;;24.50;99.90;;;;;;5088451;28;20319;-65
2021/06/11 09:30:52;;;;;;;12.38;11.27;;;24.60;99.90;;;;;;5088508;28;20227;-66
2021/06/11 09:33:21;;;;;;;13.43;12.13;;;24.60;99.90;;;;;;5088709;28;20195;-64
2021/06/11 09:35:54;;;;;;;12.35;11.25;;;24.70;99.90;;;;;;5088313;28;20180;-65
2021/06/11 09:38:25;;;;;;;12.27;11.15;;;24.70;99.90;;;;;;5088644;28;20202;-65
2021/06/11 09:41:07;;;;;;;9.18;8.38;;;24.70;99.90;;;;;;5088540;28;20206;-65
2021/06/11 09:43:54;;;;;;;11.73;10.77;;;24.80;99.90;;;;;;5088527;28;20582;-64
2021/06/11 09:46:21;;;;;;;10.30;9.43;;;24.80;99.90;;;;;;5088588;28;20771;-64
2021/06/11 09:48:51;;;;;;;11.23;10.23;;;24.90;99.90;;;;;;5088281;28;20843;-65
2021/06/11 09:51:20;;;;;;;9.73;8.93;;;24.80;99.90;;;;;;5087954;28;20291;-65
2021/06/11 09:53:48;;;;;;;10.45;9.57;;;24.80;99.90;;;;;;5088234;28;20273;-66
2021/06/11 09:56:19;;;;;;;10.65;9.77;;;24.70;99.90;;;;;;5088219;28;20222;-65
2021/06/11 09:58:48;;;;;;;11.18;10.02;;;24.80;99.90;;;;;;5088242;28;20196;-64
2021/06/11 10:01:16;;;;;;;10.75;9.75;;;24.70;99.90;;;;;;5085288;28;20200;-65
2021/06/11 10:03:46;;;;;;;9.25;8.45;;;24.80;99.90;;;;;;5064714;28;20685;-64
2021/06/11 10:06:30;;;;;;;9.95;9.02;;;24.80;99.90;;;;;;5035180;28;20605;-65
2021/06/11 10:08:58;;;;;;;9.85;8.95;;;25.00;99.90;;;;;;5048088;28;20245;-65
2021/06/11 10:11:25;;;;;;;10.40;9.57;;;25.20;99.90;;;;;;5053065;28;20296;-64
2021/06/11 10:13:54;;;;;;;10.23;9.32;;;25.30;99.90;;;;;;5071561;28;20287;-65
2021/06/11 10:16:23;;;;;;;9.20;8.40;;;25.20;99.90;;;;;;5071330;28;20223;-65
2021/06/11 10:18:50;;;;;;;10.63;9.77;;;25.10;99.90;;;;;;5079526;28;20199;-65
2021/06/11 10:21:18;;;;;;;10.68;9.70;;;25.00;99.90;;;;;;5092091;28;20204;-64
2021/06/11 10:23:45;;;;;;;10.38;9.52;;;25.10;99.90;;;;;;5092134;28;20283;-65
2021/06/11 10:26:13;;;;;;;10.00;9.10;;;25.10;99.90;;;;;;5091936;28;20224;-66
2021/06/11 10:28:42;;;;;;;9.60;8.68;;;25.10;99.90;;;;;;5084207;28;20305;-65
2021/06/11 10:31:13;;;;;;;11.63;10.63;;;25.10;99.90;;;;;;5070430;28;20276;-65
2021/06/11 10:33:51;;;;;;;10.85;9.85;;;25.10;99.90;;;;;;5068597;28;20184;-65
2021/06/11 10:36:37;;;;;;;10.10;9.30;;;25.20;99.90;;;;;;5070950;28;20280;-65
2021/06/11 10:39:25;;;;;;;9.70;8.90;;;25.20;99.90;;;;;;5071262;28;20180;-65
2021/06/11 10:41:58;;;;;;;10.13;9.32;;;25.20;99.90;;;;;;5071469;28;20201;-65
2021/06/11 10:44:37;;;;;;;10.48;9.55;;;25.20;99.90;;;;;;5071119;28;20511;-65
2021/06/11 10:47:24;;;;;;;11.90;10.82;;;25.10;99.90;;;;;;5071312;28;20220;-65
2021/06/11 10:50:10;;;;;;;9.00;8.27;;;25.20;99.90;;;;;;5058749;28;20287;-64
2021/06/11 10:52:42;;;;;;;8.98;8.30;;;25.30;99.90;;;;;;5071141;28;20220;-65
2021/06/11 10:55:44;;;;;;;8.90;8.20;;;25.30;99.90;;;;;;5071327;28;20246;-64
2021/06/11 10:58:33;;;;;;;9.82;8.88;;;25.50;99.90;;;;;;5071130;28;20676;-65
2021/06/11 11:01:36;;;;;;;12.05;8.63;;;25.60;99.90;;;;;;5057185;28;20236;-65
2021/06/11 11:04:31;;;;;;;8.00;7.40;;;25.60;99.90;;;;;;5061274;28;20250;-65
2021/06/11 11:07:34;;;;;;;10.73;9.27;;;25.80;99.90;;;;;;5055839;28;20201;-63
2021/06/11 11:10:04;;;;;;;8.55;7.85;;;26.00;99.90;;;;;;5071066;28;20270;-62
2021/06/11 11:12:59;;;;;;;8.70;7.72;;;26.00;99.90;;;;;;5071097;28;20291;-62
2021/06/11 11:15:34;;;;;;;8.38;7.57;;;26.00;99.90;;;;;;5070966;28;20271;-63
2021/06/11 11:18:03;;;;;;;7.50;6.80;;;26.10;99.90;;;;;;5071235;28;20259;-63
2021/06/11 11:20:34;;;;;;;9.85;7.45;;;26.10;99.90;;;;;;5090555;28;20203;-62
2021/06/11 11:23:04;;;;;;;7.30;6.70;;;26.10;99.90;;;;;;5083608;28;20185;-64
2021/06/11 11:25:33;;;;;;;6.85;6.35;;;26.10;99.90;;;;;;5069982;28;20287;-63
2021/06/11 11:28:01;;;;;;;7.18;6.55;;;26.10;99.90;;;;;;5069728;28;20320;-61
2021/06/11 11:30:29;;;;;;;8.15;6.25;;;26.10;99.90;;;;;;5071525;28;20284;-63
2021/06/11 11:32:57;;;;;;;6.72;6.22;;;26.20;99.90;;;;;;5071173;28;20719;-63
2021/06/11 11:35:27;;;;;;;7.25;6.55;;;26.20;99.90;;;;;;5070912;28;20291;-61
2021/06/11 11:37:56;;;;;;;8.40;6.97;;;26.30;99.90;;;;;;5070791;28;20208;-62
2021/06/11 11:40:24;;;;;;;6.55;6.05;;;26.30;99.90;;;;;;5070888;28;20743;-61
2021/06/11 11:42:52;;;;;;;6.65;6.03;;;26.50;99.90;;;;;;5071100;28;20193;-64
2021/06/11 11:45:24;;;;;;;6.57;5.93;;;26.70;99.90;;;;;;5071192;28;20197;-64
2021/06/11 11:47:52;;;;;;;7.10;6.45;;;26.70;99.90;;;;;;5070949;28;20271;-66
2021/06/11 11:50:21;;;;;;;5.93;5.30;;;26.70;99.90;;;;;;5070789;28;20201;-65
2021/06/11 11:52:49;;;;;;;6.60;5.90;;;26.70;99.90;;;;;;5070512;28;20699;-67
2021/06/11 11:55:18;;;;;;;6.93;6.28;;;26.60;99.90;;;;;;5070488;28;20205;-66
2021/06/11 11:57:46;;;;;;;6.25;5.65;;;26.40;99.90;;;;;;5070843;28;20212;-65
2021/06/11 12:00:14;;;;;;;6.53;5.82;;;26.40;99.90;;;;;;5070958;28;20296;-66
2021/06/11 12:02:42;;;;;;;5.85;5.45;;;26.50;99.90;;;;;;5071063;28;20559;-67
2021/06/11 12:05:11;;;;;;;6.40;5.80;;;26.30;99.90;;;;;;5070740;28;20289;-66
2021/06/11 12:07:39;;;;;;;5.57;5.18;;;26.30;99.90;;;;;;5070513;28;20211;-66
2021/06/11 12:10:10;;;;;;;6.00;5.40;;;26.20;99.90;;;;;;5067822;28;20238;-63
2021/06/11 12:12:38;;;;;;;6.03;5.50;;;26.20;99.90;;;;;;5070407;28;20288;-62
2021/06/11 12:15:07;;;;;;;5.70;5.20;;;26.00;99.90;;;;;;5069873;28;20666;-67
2021/06/11 12:17:35;;;;;;;6.03;5.53;;;26.10;99.90;;;;;;5070198;28;20221;-65
2021/06/11 12:20:03;;;;;;;5.70;5.10;;;26.20;99.90;;;;;;5075622;28;20206;-67
2021/06/11 12:22:31;;;;;;;5.70;5.20;;;26.20;99.90;;;;;;5069643;28;20193;-65
2021/06/11 12:24:58;;;;;;;4.65;4.25;;;26.20;99.90;;;;;;5069621;28;20285;-65
2021/06/11 12:27:26;;;;;;;5.18;4.63;;;26.30;99.90;;;;;;5069486;28;20282;-63
2021/06/11 12:29:54;;;;;;;5.55;5.05;;;26.30;99.90;;;;;;5070110;28;20208;-65
2021/06/11 12:32:22;;;;;;;6.00;5.50;;;26.40;99.90;;;;;;5069258;28;20207;-64
2021/06/11 12:34:49;;;;;;;4.72;4.32;;;26.30;99.90;;;;;;5070020;28;20206;-64
2021/06/11 12:37:16;;;;;;;5.45;4.95;;;26.20;99.90;;;;;;5069405;28;20217;-64
2021/06/11 12:39:44;;;;;;;6.15;5.57;;;26.30;99.90;;;;;;5069541;28;20262;-65
2021/06/11 12:42:14;;;;;;;5.57;4.70;;;26.30;99.90;;;;;;5069860;28;20203;-66
2021/06/11 12:44:42;;;;;;;4.90;4.60;;;26.20;99.90;;;;;;5070071;28;20185;-64